Flight Track Log - Related Links

Times and Time Zones

All times are in EDT time to prevent confusion due to time zone crossing. See the SWA1040 flight status page for this flight to view local times or setup timezone preferences in your user account.


Time Position Orientation Groundspeed Altitude Reporting Facility
EDT Latitude Longitude Course Direction KTS MPH feet Rate Location/Type
Sat 09:22:32 AM 28.4000 -81.3000 360° North 165 190 600  Level Orlando TRACON
Sat 09:22:50 AM 28.4000 -81.3000 132° Southeast 163 188 1,300 1,804 Climbing Orlando TRACON
Sat 09:24:55 AM 28.3161 -81.1925 132° Southeast 223 257 4,900 2,270 Climbing Jacksonville Center
Sat 09:25:55 AM 28.3464 -81.1167 66° East 223 257 8,300 3,050 Climbing Jacksonville Center
Sat 09:26:55 AM 28.4197 -81.1506 338° Northwest 159 183 11,000 2,750 Climbing Jacksonville Center
Sat 09:27:55 AM 28.5000 -81.2083 328° Northwest 250 288 13,800 2,950 Climbing Jacksonville Center
Sat 09:28:55 AM 28.5800 -81.2708 326° Northwest 301 346 16,900 2,950 Climbing Jacksonville Center
Sat 09:29:55 AM 28.6786 -81.3025 344° North 337 388 19,700 2,600 Climbing Jacksonville Center
Sat 09:30:55 AM 28.7872 -81.3150 354° North 363 418 22,100 2,250 Climbing Jacksonville Center
Sat 09:31:55 AM 28.9000 -81.3272 355° North 389 448 24,200 1,950 Climbing Jacksonville Center
Sat 09:32:55 AM 29.0172 -81.3422 354° North 408 470 26,000 1,650 Climbing Jacksonville Center
Sat 09:33:55 AM 29.1342 -81.3544 355° North 413 475 27,500 1,650 Climbing Jacksonville Center
Sat 09:34:55 AM 29.2511 -81.3717 353° North 418 481 29,300 1,750 Climbing Jacksonville Center
Sat 09:35:55 AM 29.3703 -81.3889 353° North 428 493 31,000 1,950 Climbing Jacksonville Center
Sat 09:36:55 AM 29.5000 -81.4061 353° North 428 493 33,200 1,900 Climbing Jacksonville Center
Sat 09:37:55 AM 29.6169 -81.4186 355° North 423 487 34,800 900 Climbing Jacksonville Center
Sat 09:38:55 AM 29.7322 -81.4600 343° North 423 487 35,000 600 Climbing Jacksonville Center
Sat 09:39:55 AM 29.8497 -81.5108 339° North 430 495 36,000 1,150 Climbing Jacksonville Center
Sat 09:40:55 AM 29.9653 -81.5594 340° North 443 510 37,300 1,400 Climbing Jacksonville Center
Sat 09:41:55 AM 30.0742 -81.5989 343° North 450 518 38,800 850 Climbing Jacksonville Center
Sat 09:42:55 AM 30.1972 -81.5803 North 445 512 39,000 100 Climbing Jacksonville Center
Sat 09:43:55 AM 30.3242 -81.5594 North 445 512 39,000  Level Jacksonville Center
Sat 09:44:55 AM 30.4514 -81.5358 North 450 518 39,000  Level Jacksonville Center
Sat 09:45:55 AM 30.5742 -81.5100 10° North 450 518 39,000  Level Jacksonville Center
Sat 09:46:55 AM 30.7036 -81.4864 North 450 518 39,000  Level Jacksonville Center
Sat 09:47:55 AM 30.8264 -81.4628 North 450 518 39,000  Level Jacksonville Center
Sat 09:48:55 AM 30.9536 -81.4392 North 450 518 39,000  Level Jacksonville Center
Sat 09:49:55 AM 31.0806 -81.4153 North 456 525 39,000  Level Jacksonville Center
Sat 09:50:55 AM 31.2078 -81.3892 10° North 456 525 39,000  Level Jacksonville Center
Sat 09:51:55 AM 31.3369 -81.3650 North 461 531 39,000  Level Jacksonville Center
Sat 09:52:55 AM 31.4617 -81.3361 11° North 461 531 39,000  Level Jacksonville Center
Sat 09:53:55 AM 31.5992 -81.3094 North 461 531 39,000  Level Jacksonville Center
Sat 09:54:55 AM 31.7139 -81.2881 North 466 536 39,000  Level Jacksonville Center
Sat 09:55:55 AM 31.8553 -81.2561 11° North 467 537 39,000  Level Jacksonville Center
Sat 09:56:55 AM 31.9719 -81.2344 North 467 537 39,000  Level Jacksonville Center
Sat 09:57:55 AM 32.0989 -81.2103 North 467 537 39,000  Level Jacksonville Center
Sat 09:58:55 AM 32.2192 -81.1492 23° Northeast 467 537 39,000  Level Jacksonville Center
Sat 09:59:55 AM 32.3308 -81.0683 31° Northeast 461 531 39,000  Level Jacksonville Center
Sat 10:00:55 AM 32.4425 -80.9872 32° Northeast 466 536 39,000  Level Jacksonville Center
Sat 10:01:55 AM 32.5581 -80.9036 31° Northeast 471 542 39,000  Level Jacksonville Center
Sat 10:02:55 AM 32.6694 -80.8219 32° Northeast 471 542 39,000  Level Jacksonville Center
Sat 10:03:55 AM 32.7889 -80.7328 32° Northeast 465 535 39,000  Level Jacksonville Center
Sat 10:04:55 AM 32.9025 -80.6511 31° Northeast 465 535 39,000  Level Jacksonville Center
Sat 10:05:55 AM 33.0136 -80.5714 31° Northeast 465 535 39,000  Level Jacksonville Center
Sat 10:06:55 AM 33.1250 -80.4917 31° Northeast 465 535 39,000  Level Jacksonville Center
Sat 10:07:55 AM 33.2400 -80.4067 32° Northeast 465 535 39,000  Level Jacksonville Center
Sat 10:08:55 AM 33.3531 -80.3214 32° Northeast 465 535 39,000  Level Jacksonville Center
Sat 10:09:55 AM 33.4664 -80.2383 31° Northeast 471 542 39,000  Level Jacksonville Center
Sat 10:10:55 AM 33.5792 -80.1528 32° Northeast 466 536 39,000  Level Jacksonville Center
Sat 10:11:55 AM 33.6922 -80.0694 32° Northeast 466 536 39,000  Level Jacksonville Center
Sat 10:12:55 AM 33.8069 -79.9808 33° Northeast 466 536 39,000  Level Jacksonville Center
Sat 10:13:55 AM 33.9197 -79.8969 32° Northeast 466 536 39,000  Level Jacksonville Center
Sat 10:14:55 AM 34.0325 -79.8103 32° Northeast 466 536 39,000  Level Jacksonville Center
Sat 10:15:55 AM 34.1472 -79.7261 31° Northeast 466 536 39,000  Level Jacksonville Center
Sat 10:16:55 AM 34.2372 -79.6575 32° Northeast 466 536 39,000  Level Jacksonville Center
Sat 10:18:27 AM 34.4275 -79.5575 23° Northeast 462 532 39,000  Level Washington Center
Sat 10:19:27 AM 34.5483 -79.4953 23° Northeast 467 537 39,000  Level Washington Center
Sat 10:20:25 AM 34.6717 -79.4278 24° Northeast 467 537 39,000  Level Washington Center
Sat 10:21:26 AM 34.7925 -79.3653 23° Northeast 467 537 39,000  Level Washington Center
Sat 10:22:27 AM 34.9133 -79.3025 23° Northeast 467 537 39,000  Level Washington Center
Sat 10:23:27 AM 35.0364 -79.2347 24° Northeast 462 532 39,000  Level Washington Center
Sat 10:24:27 AM 35.1553 -79.1714 24° Northeast 462 532 39,000  Level Washington Center
Sat 10:25:25 AM 35.2761 -79.1081 23° Northeast 462 532 39,000  Level Washington Center
Sat 10:26:25 AM 35.3850 -79.0236 32° Northeast 462 532 39,000  Level Washington Center
Sat 10:27:26 AM 35.4897 -78.9364 34° Northeast 462 532 39,000  Level Washington Center
Sat 10:28:25 AM 35.5986 -78.8439 35° Northeast 462 532 39,000  Level Washington Center
Sat 10:29:25 AM 35.7181 -78.7439 34° Northeast 462 532 39,000  Level Washington Center
Sat 10:30:26 AM 35.8228 -78.6533 35° Northeast 462 532 39,000  Level Washington Center
Sat 10:31:27 AM 35.9250 -78.5647 35° Northeast 462 532 39,000  Level Washington Center
Sat 10:32:25 AM 36.0317 -78.4739 35° Northeast 457 526 39,000  Level Washington Center
Sat 10:33:25 AM 36.1381 -78.3825 35° Northeast 457 526 39,000  Level Washington Center
Sat 10:34:25 AM 36.2425 -78.2908 35° Northeast 457 526 39,000  Level Washington Center
Sat 10:35:27 AM 36.3467 -78.2017 35° Northeast 457 526 39,000  Level Washington Center
Sat 10:36:27 AM 36.4339 -78.1194 37° Northeast 457 526 39,000  Level Washington Center
Sat 10:37:27 AM 36.5403 -78.0297 34° Northeast 452 520 39,000  Level Washington Center
Sat 10:38:25 AM 36.6422 -77.9397 35° Northeast 452 520 39,000  Level Washington Center
Sat 10:39:25 AM 36.7419 -77.8494 36° Northeast 452 520 39,000  Level Washington Center
Sat 10:40:26 AM 36.8458 -77.7592 35° Northeast 452 520 39,000  Level Washington Center
Sat 10:41:26 AM 36.9453 -77.6736 35° Northeast 447 514 39,000  Level Washington Center
Sat 10:42:27 AM 37.0450 -77.5825 36° Northeast 447 514 39,000  Level Washington Center
Sat 10:43:25 AM 37.1467 -77.4939 35° Northeast 441 507 39,000  Level Washington Center
Sat 10:44:25 AM 37.2461 -77.4050 35° Northeast 436 502 39,000  Level Washington Center
Sat 10:45:25 AM 37.3475 -77.3161 35° Northeast 436 502 39,000  Level Washington Center
Sat 10:46:26 AM 37.4489 -77.2294 34° Northeast 436 502 39,000  Level Washington Center
Sat 10:47:27 AM 37.5503 -77.1347 37° Northeast 436 502 39,000  Level Washington Center
Sat 10:48:25 AM 37.6494 -77.0422 36° Northeast 441 507 39,000  Level Washington Center
Sat 10:49:26 AM 37.7506 -76.9522 35° Northeast 441 507 39,000  Level Washington Center
Sat 10:50:26 AM 37.8475 -76.8619 36° Northeast 441 507 39,000  Level Washington Center
Sat 10:51:27 AM 37.9464 -76.7714 36° Northeast 441 507 39,000  Level Washington Center
Sat 10:52:25 AM 38.0453 -76.6808 36° Northeast 436 502 39,000  Level Washington Center
Sat 10:53:26 AM 38.1419 -76.5922 36° Northeast 436 502 39,000  Level Washington Center
Sat 10:54:25 AM 38.2386 -76.5011 37° Northeast 431 496 39,000  Level Washington Center
Sat 10:55:26 AM 38.3331 -76.4150 36° Northeast 431 496 39,000  Level Washington Center
Sat 10:56:27 AM 38.4317 -76.3206 37° Northeast 431 496 39,000  Level Washington Center
Sat 10:57:25 AM 38.5406 -76.2208 36° Northeast 436 502 39,000  Level Washington Center
Sat 10:58:26 AM 38.6328 -76.1392 35° Northeast 436 502 39,000  Level Washington Center
Sat 10:59:25 AM 38.7289 -76.0494 36° Northeast 436 502 39,000  Level Washington Center
Sat 11:00:26 AM 38.8231 -75.9567 37° Northeast 431 496 39,000  Level Washington Center
Sat 11:01:27 AM 38.9192 -75.8664 36° Northeast 431 496 39,000  Level Washington Center
Sat 11:02:25 AM 39.0153 -75.7758 36° Northeast 426 490 39,000  Level Washington Center
Sat 11:03:26 AM 39.1114 -75.6853 36° Northeast 431 496 39,000 -344 Level Washington Center
Sat 11:04:27 AM 39.2072 -75.5942 36° Northeast 431 496 38,300 -793 Descending Washington Center
Sat 11:05:27 AM 39.3008 -75.5031 37° Northeast 431 496 37,400 -1,013 Descending Washington Center
Sat 11:07:07 AM 39.4725 -75.3403 36° Northeast 417 480 35,600 -911 Descending New York Center
Sat 11:08:05 AM 39.5678 -75.2467 37° Northeast 428 493 35,000 -305 Descending New York Center
Sat 11:09:05 AM 39.6631 -75.1558 36° Northeast 429 494 35,000  Level New York Center
Sat 11:10:06 AM 39.7583 -75.0564 39° Northeast 434 499 35,000  Level New York Center
Sat 11:11:06 AM 39.8533 -74.9647 37° Northeast 434 499 35,000  Level New York Center
Sat 11:12:07 AM 39.9464 -74.8675 39° Northeast 429 494 35,000  Level New York Center
Sat 11:13:06 AM 40.0317 -74.7586 44° Northeast 434 499 35,000 -99 Level New York Center
Sat 11:14:08 AM 40.1106 -74.6383 49° Northeast 429 494 34,800 -605 Descending New York Center
Sat 11:15:05 AM 40.1892 -74.5258 48° Northeast 424 488 33,800 -1,026 Descending New York Center
Sat 11:16:05 AM 40.2633 -74.4292 45° Northeast 419 482 32,800 -992 Descending New York Center
Sat 11:17:06 AM 40.3514 -74.3358 39° Northeast 404 465 31,800 -885 Descending New York Center
Sat 11:18:07 AM 40.4378 -74.2422 40° Northeast 399 459 31,000 -744 Descending New York Center
Sat 11:19:07 AM 40.5236 -74.1511 39° Northeast 394 453 30,300 -1,450 Descending New York Center
Sat 11:20:07 AM 40.6097 -74.0597 39° Northeast 394 453 28,100 -2,059 Descending New York Center
Sat 11:21:56 AM 40.7569 -73.9033 39° Northeast 392 451 24,500 -1,456 Descending Boston Center
Sat 11:22:56 AM 40.8311 -73.8169 41° Northeast 365 420 24,000 -250 Descending Boston Center
Sat 11:23:56 AM 40.8967 -73.7361 43° Northeast 336 387 24,000  Level Boston Center
Sat 11:24:56 AM 40.9642 -73.6522 43° Northeast 330 380 24,000 -500 Level Boston Center
Sat 11:25:56 AM 41.0522 -73.6100 20° North 321 369 23,000 -500 Descending Boston Center
Sat 11:26:56 AM 41.1358 -73.5700 20° North 316 364 23,000 -350 Level Boston Center
Sat 11:27:56 AM 41.2178 -73.5300 20° North 316 364 22,300 -850 Descending Boston Center
Sat 11:28:56 AM 41.3014 -73.4928 18° North 316 364 21,300 -1,000 Descending Boston Center
Sat 11:30:08 AM 41.4097 -73.4947 359° North 304 350 20,100 -1,000 Descending Boston Center
Sat 11:31:08 AM 41.5014 -73.4933 North 310 357 19,100 -900 Descending Boston Center
Sat 11:32:08 AM 41.5700 -73.5000 356° North 310 357 18,300 -800 Descending Boston Center
Sat 11:33:08 AM 41.6847 -73.5047 358° North 310 357 17,500 -800 Descending Boston Center
Sat 11:34:08 AM 41.7492 -73.5086 357° North 315 362 16,700 -1,000 Descending Boston Center
Sat 11:35:08 AM 41.8639 -73.5161 357° North 315 362 15,500 -1,400 Descending Boston Center
Sat 11:36:08 AM 41.9556 -73.5178 359° North 315 362 13,900 -1,600 Descending Boston Center
Sat 11:37:08 AM 42.0408 -73.5219 358° North 310 357 12,300 -1,450 Descending Boston Center
Sat 11:38:08 AM 42.1264 -73.5261 358° North 310 357 11,000 -650 Descending Boston Center
Sat 11:39:08 AM 42.2097 -73.5136 North 305 351 11,000  Level Boston Center
Sat 11:40:05 AM 42.2892 -73.4953 10° North 300 345 11,000 -308 Level Boston Center
Sat 11:41:05 AM 42.3661 -73.5078 353° North 287 330 10,400 -843 Descending Boston Center
Sat 11:42:06 AM 42.4325 -73.5625 329° Northwest 281 323 9,300 -1,033 Descending Boston Center
Sat 11:43:07 AM 42.4986 -73.6114 331° Northwest 278 320 8,300 -934 Descending Boston Center
Sat 11:44:08 AM 42.5628 -73.6606 331° Northwest 275 316 7,400 -1,289 Descending Boston Center
Sat 11:45:08 AM 42.6369 -73.7186 330° Northwest 277 319 5,700 -1,700 Descending Boston Center
Sat 11:45:08 AM 42.6369 -73.7186 330° Northwest 272 313 5,700 -1,600 Level Boston Center
Sat 11:46:08 AM 42.7056 -73.7342 351° North 246 283 4,100 -1,350 Descending Boston Center
Sat 11:47:08 AM 42.6772 -73.6769 124° Southeast 94 108 3,000 -550 Descending Boston Center
Sat 11:48:08 AM 42.6578 -73.7303 244° Southwest 103 119 3,000 -650 Level Boston Center
Sat 11:49:08 AM 42.5950 -73.7544 196° South 126 145 1,700 10,000 Descending Boston Center
Sat 11:50:08 AM 42.5697 -73.7708 206° Southwest 126 145 23,000 10,650 Climbing Boston Center
Sat 11:51:08 AM 42.5319 -73.7953 205° Southwest 126 145 23,000  Level Boston Center
Sat 11:52:08 AM 42.5006 -73.8172 207° Southwest 126 145 23,000  Level Boston Center
Sat 11:53:08 AM 42.4817 -73.8281 203° Southwest 126 145 23,000  Level Boston Center

Login

Don't have an account? Register now (free) for customized features, flight alerts, and more!